sensor_id;sensor_type;location;lat;lon;timestamp;P1;durP1;ratioP1;P2;durP2;ratioP2
43150;SDS011;28755;51.478;5.702;2022-12-20T00:01:09;4.85;;;1.92;;
43150;SDS011;28755;51.478;5.702;2022-12-20T00:03:38;5.82;;;2.00;;
43150;SDS011;28755;51.478;5.702;2022-12-20T00:06:04;3.78;;;1.88;;
43150;SDS011;28755;51.478;5.702;2022-12-20T00:08:30;4.10;;;1.90;;
43150;SDS011;28755;51.478;5.702;2022-12-20T00:10:58;3.08;;;1.70;;
43150;SDS011;28755;51.478;5.702;2022-12-20T00:13:25;2.65;;;1.60;;
43150;SDS011;28755;51.478;5.702;2022-12-20T00:16:02;3.20;;;1.70;;
43150;SDS011;28755;51.478;5.702;2022-12-20T00:18:29;3.33;;;1.67;;
43150;SDS011;28755;51.478;5.702;2022-12-20T00:20:58;2.80;;;1.65;;
43150;SDS011;28755;51.478;5.702;2022-12-20T00:23:24;3.83;;;1.83;;
43150;SDS011;28755;51.478;5.702;2022-12-20T00:25:49;9.18;;;1.70;;
43150;SDS011;28755;51.478;5.702;2022-12-20T00:28:15;2.92;;;1.90;;
43150;SDS011;28755;51.478;5.702;2022-12-20T00:30:40;2.78;;;1.52;;
43150;SDS011;28755;51.478;5.702;2022-12-20T00:33:06;2.97;;;1.58;;
43150;SDS011;28755;51.478;5.702;2022-12-20T00:35:31;3.97;;;1.77;;
43150;SDS011;28755;51.478;5.702;2022-12-20T00:37:57;6.57;;;1.95;;
43150;SDS011;28755;51.478;5.702;2022-12-20T00:40:22;3.63;;;1.50;;
43150;SDS011;28755;51.478;5.702;2022-12-20T00:42:48;6.55;;;2.20;;
43150;SDS011;28755;51.478;5.702;2022-12-20T00:45:13;4.07;;;1.83;;
43150;SDS011;28755;51.478;5.702;2022-12-20T00:47:39;3.33;;;2.03;;
43150;SDS011;28755;51.478;5.702;2022-12-20T00:50:05;5.03;;;1.67;;
43150;SDS011;28755;51.478;5.702;2022-12-20T00:52:31;4.07;;;1.38;;
43150;SDS011;28755;51.478;5.702;2022-12-20T00:54:56;7.82;;;1.65;;
43150;SDS011;28755;51.478;5.702;2022-12-20T00:57:22;3.88;;;1.70;;
43150;SDS011;28755;51.478;5.702;2022-12-20T00:59:47;3.08;;;1.73;;
43150;SDS011;28755;51.478;5.702;2022-12-20T01:02:13;2.60;;;1.80;;
43150;SDS011;28755;51.478;5.702;2022-12-20T01:04:38;4.32;;;1.60;;
43150;SDS011;28755;51.478;5.702;2022-12-20T01:07:04;3.72;;;2.05;;
43150;SDS011;28755;51.478;5.702;2022-12-20T01:09:30;2.30;;;1.55;;
43150;SDS011;28755;51.478;5.702;2022-12-20T01:11:55;4.10;;;1.42;;
43150;SDS011;28755;51.478;5.702;2022-12-20T01:14:21;4.45;;;1.73;;
43150;SDS011;28755;51.478;5.702;2022-12-20T01:16:46;5.32;;;1.67;;
43150;SDS011;28755;51.478;5.702;2022-12-20T01:19:13;3.83;;;1.50;;
43150;SDS011;28755;51.478;5.702;2022-12-20T01:21:41;3.38;;;1.88;;
43150;SDS011;28755;51.478;5.702;2022-12-20T01:24:12;2.83;;;1.77;;
43150;SDS011;28755;51.478;5.702;2022-12-20T01:26:39;5.63;;;1.60;;
43150;SDS011;28755;51.478;5.702;2022-12-20T01:29:05;2.70;;;1.60;;
43150;SDS011;28755;51.478;5.702;2022-12-20T01:31:30;3.75;;;1.63;;
43150;SDS011;28755;51.478;5.702;2022-12-20T01:33:56;5.03;;;1.70;;
43150;SDS011;28755;51.478;5.702;2022-12-20T01:36:23;3.60;;;1.95;;
43150;SDS011;28755;51.478;5.702;2022-12-20T01:38:54;4.57;;;1.73;;
43150;SDS011;28755;51.478;5.702;2022-12-20T01:41:21;2.47;;;1.60;;
43150;SDS011;28755;51.478;5.702;2022-12-20T01:43:49;3.25;;;1.80;;
43150;SDS011;28755;51.478;5.702;2022-12-20T01:46:20;6.32;;;1.98;;
43150;SDS011;28755;51.478;5.702;2022-12-20T01:48:49;2.75;;;1.67;;
43150;SDS011;28755;51.478;5.702;2022-12-20T01:51:20;3.22;;;1.80;;
43150;SDS011;28755;51.478;5.702;2022-12-20T01:53:47;3.25;;;1.80;;
43150;SDS011;28755;51.478;5.702;2022-12-20T01:56:20;4.55;;;2.30;;
43150;SDS011;28755;51.478;5.702;2022-12-20T01:58:46;2.63;;;2.03;;
43150;SDS011;28755;51.478;5.702;2022-12-20T02:01:15;4.90;;;2.05;;
43150;SDS011;28755;51.478;5.702;2022-12-20T02:03:41;5.72;;;2.08;;
43150;SDS011;28755;51.478;5.702;2022-12-20T02:06:17;5.95;;;2.13;;
43150;SDS011;28755;51.478;5.702;2022-12-20T02:08:45;4.93;;;2.10;;
43150;SDS011;28755;51.478;5.702;2022-12-20T02:11:16;4.45;;;2.20;;
43150;SDS011;28755;51.478;5.702;2022-12-20T02:14:14;2.63;;;2.35;;
43150;SDS011;28755;51.478;5.702;2022-12-20T02:16:45;4.10;;;2.78;;
43150;SDS011;28755;51.478;5.702;2022-12-20T02:19:52;3.90;;;2.50;;
43150;SDS011;28755;51.478;5.702;2022-12-20T02:22:45;7.00;;;2.20;;
43150;SDS011;28755;51.478;5.702;2022-12-20T02:30:52;9.45;;;2.13;;
43150;SDS011;28755;51.478;5.702;2022-12-20T02:33:20;4.43;;;2.08;;
43150;SDS011;28755;51.478;5.702;2022-12-20T02:35:47;4.97;;;2.55;;
43150;SDS011;28755;51.478;5.702;2022-12-20T02:41:11;5.82;;;2.42;;
43150;SDS011;28755;51.478;5.702;2022-12-20T02:43:58;4.00;;;2.15;;
43150;SDS011;28755;51.478;5.702;2022-12-20T02:46:54;3.72;;;1.75;;
43150;SDS011;28755;51.478;5.702;2022-12-20T02:49:22;6.43;;;2.08;;
43150;SDS011;28755;51.478;5.702;2022-12-20T02:51:51;5.78;;;2.10;;
43150;SDS011;28755;51.478;5.702;2022-12-20T02:54:20;3.60;;;2.45;;
43150;SDS011;28755;51.478;5.702;2022-12-20T02:56:49;6.15;;;1.98;;
43150;SDS011;28755;51.478;5.702;2022-12-20T02:59:30;4.70;;;2.25;;
43150;SDS011;28755;51.478;5.702;2022-12-20T03:02:07;5.55;;;2.13;;
43150;SDS011;28755;51.478;5.702;2022-12-20T03:04:35;3.50;;;1.75;;
43150;SDS011;28755;51.478;5.702;2022-12-20T03:07:04;4.72;;;2.00;;
43150;SDS011;28755;51.478;5.702;2022-12-20T03:09:32;5.38;;;2.03;;
43150;SDS011;28755;51.478;5.702;2022-12-20T03:12:00;4.75;;;1.92;;
43150;SDS011;28755;51.478;5.702;2022-12-20T03:14:26;2.80;;;1.52;;
43150;SDS011;28755;51.478;5.702;2022-12-20T03:16:52;6.65;;;2.30;;
43150;SDS011;28755;51.478;5.702;2022-12-20T03:19:18;4.38;;;1.88;;
43150;SDS011;28755;51.478;5.702;2022-12-20T03:21:44;5.75;;;2.17;;
43150;SDS011;28755;51.478;5.702;2022-12-20T03:24:11;3.05;;;1.75;;
43150;SDS011;28755;51.478;5.702;2022-12-20T03:26:37;4.18;;;1.92;;
43150;SDS011;28755;51.478;5.702;2022-12-20T03:29:04;4.30;;;1.60;;
43150;SDS011;28755;51.478;5.702;2022-12-20T03:31:29;3.22;;;1.80;;
43150;SDS011;28755;51.478;5.702;2022-12-20T03:33:55;3.08;;;1.88;;
43150;SDS011;28755;51.478;5.702;2022-12-20T03:36:21;4.15;;;2.28;;
43150;SDS011;28755;51.478;5.702;2022-12-20T03:38:50;5.85;;;1.90;;
43150;SDS011;28755;51.478;5.702;2022-12-20T03:41:17;2.92;;;1.73;;
43150;SDS011;28755;51.478;5.702;2022-12-20T03:43:45;6.05;;;1.83;;
43150;SDS011;28755;51.478;5.702;2022-12-20T03:46:10;3.40;;;1.90;;
43150;SDS011;28755;51.478;5.702;2022-12-20T03:48:36;3.30;;;1.75;;
43150;SDS011;28755;51.478;5.702;2022-12-20T03:51:02;4.93;;;2.15;;
43150;SDS011;28755;51.478;5.702;2022-12-20T03:53:27;3.90;;;1.60;;
43150;SDS011;28755;51.478;5.702;2022-12-20T03:55:53;3.10;;;1.50;;
43150;SDS011;28755;51.478;5.702;2022-12-20T03:58:19;4.30;;;1.65;;
43150;SDS011;28755;51.478;5.702;2022-12-20T04:00:44;4.93;;;1.70;;
43150;SDS011;28755;51.478;5.702;2022-12-20T04:03:10;4.45;;;1.60;;
43150;SDS011;28755;51.478;5.702;2022-12-20T04:05:35;3.92;;;2.00;;
43150;SDS011;28755;51.478;5.702;2022-12-20T04:08:01;3.03;;;1.70;;
43150;SDS011;28755;51.478;5.702;2022-12-20T04:10:26;3.55;;;1.70;;
43150;SDS011;28755;51.478;5.702;2022-12-20T04:12:52;4.18;;;1.65;;
43150;SDS011;28755;51.478;5.702;2022-12-20T04:15:18;3.80;;;2.00;;
43150;SDS011;28755;51.478;5.702;2022-12-20T04:17:43;4.05;;;2.00;;
43150;SDS011;28755;51.478;5.702;2022-12-20T04:20:12;6.57;;;1.73;;
43150;SDS011;28755;51.478;5.702;2022-12-20T04:22:45;2.67;;;1.67;;
43150;SDS011;28755;51.478;5.702;2022-12-20T04:25:12;3.53;;;1.90;;
43150;SDS011;28755;51.478;5.702;2022-12-20T04:27:37;3.22;;;1.75;;
43150;SDS011;28755;51.478;5.702;2022-12-20T04:30:03;5.05;;;1.70;;
43150;SDS011;28755;51.478;5.702;2022-12-20T04:32:29;4.90;;;1.85;;
43150;SDS011;28755;51.478;5.702;2022-12-20T04:34:54;3.67;;;1.83;;
43150;SDS011;28755;51.478;5.702;2022-12-20T04:37:20;3.25;;;1.52;;
43150;SDS011;28755;51.478;5.702;2022-12-20T04:39:45;5.22;;;2.05;;
43150;SDS011;28755;51.478;5.702;2022-12-20T04:42:11;2.65;;;1.70;;
43150;SDS011;28755;51.478;5.702;2022-12-20T04:44:37;3.40;;;1.73;;
43150;SDS011;28755;51.478;5.702;2022-12-20T04:47:02;4.55;;;2.17;;
43150;SDS011;28755;51.478;5.702;2022-12-20T04:49:28;6.63;;;1.70;;
43150;SDS011;28755;51.478;5.702;2022-12-20T04:51:53;3.47;;;1.92;;
43150;SDS011;28755;51.478;5.702;2022-12-20T04:54:39;4.05;;;1.65;;
43150;SDS011;28755;51.478;5.702;2022-12-20T04:57:05;5.40;;;1.90;;
43150;SDS011;28755;51.478;5.702;2022-12-20T04:59:30;4.07;;;1.95;;
43150;SDS011;28755;51.478;5.702;2022-12-20T05:01:56;3.88;;;1.75;;
43150;SDS011;28755;51.478;5.702;2022-12-20T05:04:21;6.28;;;1.70;;
43150;SDS011;28755;51.478;5.702;2022-12-20T05:06:47;4.28;;;2.00;;
43150;SDS011;28755;51.478;5.702;2022-12-20T05:09:12;4.55;;;1.77;;
43150;SDS011;28755;51.478;5.702;2022-12-20T05:11:38;5.10;;;2.03;;
43150;SDS011;28755;51.478;5.702;2022-12-20T05:14:03;3.90;;;1.70;;
43150;SDS011;28755;51.478;5.702;2022-12-20T05:16:29;4.57;;;1.85;;
43150;SDS011;28755;51.478;5.702;2022-12-20T05:18:54;2.97;;;1.80;;
43150;SDS011;28755;51.478;5.702;2022-12-20T05:21:20;6.57;;;2.15;;
43150;SDS011;28755;51.478;5.702;2022-12-20T05:24:04;6.28;;;2.25;;
43150;SDS011;28755;51.478;5.702;2022-12-20T05:26:48;2.75;;;1.73;;
43150;SDS011;28755;51.478;5.702;2022-12-20T05:29:14;4.55;;;1.85;;
43150;SDS011;28755;51.478;5.702;2022-12-20T05:31:40;3.35;;;1.98;;
43150;SDS011;28755;51.478;5.702;2022-12-20T05:34:06;4.38;;;2.05;;
43150;SDS011;28755;51.478;5.702;2022-12-20T05:36:31;6.35;;;2.20;;
43150;SDS011;28755;51.478;5.702;2022-12-20T05:38:57;5.55;;;2.15;;
43150;SDS011;28755;51.478;5.702;2022-12-20T05:41:22;5.93;;;2.45;;
43150;SDS011;28755;51.478;5.702;2022-12-20T05:43:48;3.95;;;2.22;;
43150;SDS011;28755;51.478;5.702;2022-12-20T05:46:13;4.25;;;2.10;;
43150;SDS011;28755;51.478;5.702;2022-12-20T05:48:39;4.28;;;2.50;;
43150;SDS011;28755;51.478;5.702;2022-12-20T05:51:05;5.35;;;2.22;;
43150;SDS011;28755;51.478;5.702;2022-12-20T05:53:30;4.47;;;2.05;;
43150;SDS011;28755;51.478;5.702;2022-12-20T05:55:56;5.65;;;2.17;;
43150;SDS011;28755;51.478;5.702;2022-12-20T05:58:22;3.33;;;2.15;;
43150;SDS011;28755;51.478;5.702;2022-12-20T06:00:48;5.28;;;2.63;;
43150;SDS011;28755;51.478;5.702;2022-12-20T06:03:14;4.85;;;2.60;;
43150;SDS011;28755;51.478;5.702;2022-12-20T06:05:39;4.75;;;2.67;;
43150;SDS011;28755;51.478;5.702;2022-12-20T06:08:07;4.60;;;2.58;;
43150;SDS011;28755;51.478;5.702;2022-12-20T06:10:34;5.40;;;2.10;;
43150;SDS011;28755;51.478;5.702;2022-12-20T06:13:00;6.18;;;2.67;;
43150;SDS011;28755;51.478;5.702;2022-12-20T06:15:26;9.70;;;2.25;;
43150;SDS011;28755;51.478;5.702;2022-12-20T06:17:52;4.43;;;2.33;;
43150;SDS011;28755;51.478;5.702;2022-12-20T06:20:18;3.88;;;2.08;;
43150;SDS011;28755;51.478;5.702;2022-12-20T06:22:43;4.65;;;1.90;;
43150;SDS011;28755;51.478;5.702;2022-12-20T06:25:09;5.75;;;2.10;;
43150;SDS011;28755;51.478;5.702;2022-12-20T06:27:36;2.92;;;2.17;;
43150;SDS011;28755;51.478;5.702;2022-12-20T06:30:03;5.95;;;2.25;;
43150;SDS011;28755;51.478;5.702;2022-12-20T06:32:29;4.47;;;2.40;;
43150;SDS011;28755;51.478;5.702;2022-12-20T06:34:55;9.43;;;2.35;;
43150;SDS011;28755;51.478;5.702;2022-12-20T06:37:21;8.82;;;2.05;;
43150;SDS011;28755;51.478;5.702;2022-12-20T06:39:46;4.05;;;2.20;;
43150;SDS011;28755;51.478;5.702;2022-12-20T06:42:12;6.35;;;2.28;;
43150;SDS011;28755;51.478;5.702;2022-12-20T06:44:38;7.53;;;2.30;;
43150;SDS011;28755;51.478;5.702;2022-12-20T06:47:03;5.03;;;2.45;;
43150;SDS011;28755;51.478;5.702;2022-12-20T06:49:29;4.93;;;2.20;;
43150;SDS011;28755;51.478;5.702;2022-12-20T06:51:54;5.82;;;2.30;;
43150;SDS011;28755;51.478;5.702;2022-12-20T06:54:20;6.85;;;2.47;;
43150;SDS011;28755;51.478;5.702;2022-12-20T06:56:46;4.82;;;2.40;;
43150;SDS011;28755;51.478;5.702;2022-12-20T06:59:11;3.95;;;2.45;;
43150;SDS011;28755;51.478;5.702;2022-12-20T07:01:37;5.03;;;2.42;;
43150;SDS011;28755;51.478;5.702;2022-12-20T07:04:02;3.00;;;2.10;;
43150;SDS011;28755;51.478;5.702;2022-12-20T07:06:28;6.72;;;2.47;;
43150;SDS011;28755;51.478;5.702;2022-12-20T07:08:54;4.35;;;2.40;;
43150;SDS011;28755;51.478;5.702;2022-12-20T07:11:20;5.63;;;2.58;;
43150;SDS011;28755;51.478;5.702;2022-12-20T07:13:45;4.03;;;2.85;;
43150;SDS011;28755;51.478;5.702;2022-12-20T07:16:11;5.53;;;2.50;;
43150;SDS011;28755;51.478;5.702;2022-12-20T07:18:36;10.20;;;2.63;;
43150;SDS011;28755;51.478;5.702;2022-12-20T07:21:03;8.15;;;2.30;;
43150;SDS011;28755;51.478;5.702;2022-12-20T07:23:29;4.55;;;2.80;;
43150;SDS011;28755;51.478;5.702;2022-12-20T07:25:55;5.15;;;2.00;;
43150;SDS011;28755;51.478;5.702;2022-12-20T07:28:23;4.70;;;2.38;;
43150;SDS011;28755;51.478;5.702;2022-12-20T07:30:49;4.57;;;2.08;;
43150;SDS011;28755;51.478;5.702;2022-12-20T07:33:15;4.07;;;1.98;;
43150;SDS011;28755;51.478;5.702;2022-12-20T07:35:41;5.25;;;2.17;;
43150;SDS011;28755;51.478;5.702;2022-12-20T07:38:09;4.68;;;2.20;;
43150;SDS011;28755;51.478;5.702;2022-12-20T07:40:35;4.55;;;2.22;;
43150;SDS011;28755;51.478;5.702;2022-12-20T07:43:03;5.57;;;2.30;;
43150;SDS011;28755;51.478;5.702;2022-12-20T07:45:29;4.75;;;2.13;;
43150;SDS011;28755;51.478;5.702;2022-12-20T07:47:54;5.78;;;2.40;;
43150;SDS011;28755;51.478;5.702;2022-12-20T07:50:21;4.60;;;2.20;;
43150;SDS011;28755;51.478;5.702;2022-12-20T07:52:47;4.78;;;1.90;;
43150;SDS011;28755;51.478;5.702;2022-12-20T07:55:14;5.22;;;1.80;;
43150;SDS011;28755;51.478;5.702;2022-12-20T07:57:48;5.38;;;1.98;;
43150;SDS011;28755;51.478;5.702;2022-12-20T08:00:18;3.22;;;1.70;;
43150;SDS011;28755;51.478;5.702;2022-12-20T08:02:52;3.53;;;1.70;;
43150;SDS011;28755;51.478;5.702;2022-12-20T08:05:40;5.10;;;1.42;;
43150;SDS011;28755;51.478;5.702;2022-12-20T08:08:09;3.35;;;1.70;;
43150;SDS011;28755;51.478;5.702;2022-12-20T08:10:35;4.10;;;1.75;;
43150;SDS011;28755;51.478;5.702;2022-12-20T08:13:02;2.88;;;1.50;;
43150;SDS011;28755;51.478;5.702;2022-12-20T08:15:29;4.22;;;1.50;;
43150;SDS011;28755;51.478;5.702;2022-12-20T08:17:55;4.80;;;1.40;;
43150;SDS011;28755;51.478;5.702;2022-12-20T08:20:20;3.00;;;1.35;;
43150;SDS011;28755;51.478;5.702;2022-12-20T08:22:46;3.70;;;1.58;;
43150;SDS011;28755;51.478;5.702;2022-12-20T08:25:12;4.28;;;1.60;;
43150;SDS011;28755;51.478;5.702;2022-12-20T08:27:37;3.28;;;1.42;;
43150;SDS011;28755;51.478;5.702;2022-12-20T08:30:03;6.28;;;1.40;;
43150;SDS011;28755;51.478;5.702;2022-12-20T08:32:30;3.95;;;1.60;;
43150;SDS011;28755;51.478;5.702;2022-12-20T08:34:55;3.42;;;1.42;;
43150;SDS011;28755;51.478;5.702;2022-12-20T08:37:21;4.50;;;1.48;;
43150;SDS011;28755;51.478;5.702;2022-12-20T08:39:46;2.58;;;1.40;;
43150;SDS011;28755;51.478;5.702;2022-12-20T08:42:12;2.47;;;1.25;;
43150;SDS011;28755;51.478;5.702;2022-12-20T08:44:38;3.10;;;1.27;;
43150;SDS011;28755;51.478;5.702;2022-12-20T08:47:03;5.55;;;1.65;;
43150;SDS011;28755;51.478;5.702;2022-12-20T08:49:29;5.40;;;1.38;;
43150;SDS011;28755;51.478;5.702;2022-12-20T08:51:54;3.25;;;1.33;;
43150;SDS011;28755;51.478;5.702;2022-12-20T08:54:20;8.02;;;1.83;;
43150;SDS011;28755;51.478;5.702;2022-12-20T08:56:46;4.70;;;1.50;;
43150;SDS011;28755;51.478;5.702;2022-12-20T08:59:11;5.47;;;1.60;;
43150;SDS011;28755;51.478;5.702;2022-12-20T09:01:37;5.35;;;1.70;;
43150;SDS011;28755;51.478;5.702;2022-12-20T09:04:02;8.00;;;1.77;;
43150;SDS011;28755;51.478;5.702;2022-12-20T09:06:28;5.07;;;1.63;;
43150;SDS011;28755;51.478;5.702;2022-12-20T09:08:54;4.15;;;1.60;;
43150;SDS011;28755;51.478;5.702;2022-12-20T09:11:21;4.22;;;1.48;;
43150;SDS011;28755;51.478;5.702;2022-12-20T09:13:50;5.57;;;1.55;;
43150;SDS011;28755;51.478;5.702;2022-12-20T09:16:18;4.43;;;1.50;;
43150;SDS011;28755;51.478;5.702;2022-12-20T09:18:48;5.80;;;1.27;;
43150;SDS011;28755;51.478;5.702;2022-12-20T09:21:19;3.10;;;1.25;;
43150;SDS011;28755;51.478;5.702;2022-12-20T09:23:45;3.50;;;1.40;;
43150;SDS011;28755;51.478;5.702;2022-12-20T09:26:13;3.60;;;1.30;;
43150;SDS011;28755;51.478;5.702;2022-12-20T09:28:39;5.18;;;1.60;;
43150;SDS011;28755;51.478;5.702;2022-12-20T09:31:07;3.78;;;1.45;;
43150;SDS011;28755;51.478;5.702;2022-12-20T09:33:36;3.63;;;1.20;;
43150;SDS011;28755;51.478;5.702;2022-12-20T09:36:01;4.68;;;1.67;;
43150;SDS011;28755;51.478;5.702;2022-12-20T09:38:28;3.58;;;1.52;;
43150;SDS011;28755;51.478;5.702;2022-12-20T09:40:57;4.45;;;1.42;;
43150;SDS011;28755;51.478;5.702;2022-12-20T09:43:26;4.80;;;1.50;;
43150;SDS011;28755;51.478;5.702;2022-12-20T09:45:56;4.63;;;1.27;;
43150;SDS011;28755;51.478;5.702;2022-12-20T09:48:34;4.25;;;1.30;;
43150;SDS011;28755;51.478;5.702;2022-12-20T09:53:46;4.85;;;1.70;;
43150;SDS011;28755;51.478;5.702;2022-12-20T09:56:32;5.13;;;1.40;;
43150;SDS011;28755;51.478;5.702;2022-12-20T10:01:29;5.13;;;1.38;;
43150;SDS011;28755;51.478;5.702;2022-12-20T10:03:57;3.05;;;1.30;;
43150;SDS011;28755;51.478;5.702;2022-12-20T10:06:33;3.13;;;1.47;;
43150;SDS011;28755;51.478;5.702;2022-12-20T10:14:49;3.35;;;1.50;;
43150;SDS011;28755;51.478;5.702;2022-12-20T10:17:40;3.72;;;1.67;;
43150;SDS011;28755;51.478;5.702;2022-12-20T10:20:18;3.55;;;1.48;;
43150;SDS011;28755;51.478;5.702;2022-12-20T10:22:58;3.75;;;1.40;;
43150;SDS011;28755;51.478;5.702;2022-12-20T10:25:33;4.38;;;1.50;;
43150;SDS011;28755;51.478;5.702;2022-12-20T10:27:59;4.72;;;1.65;;
43150;SDS011;28755;51.478;5.702;2022-12-20T10:30:28;3.92;;;1.50;;
43150;SDS011;28755;51.478;5.702;2022-12-20T10:32:57;5.60;;;1.52;;
43150;SDS011;28755;51.478;5.702;2022-12-20T10:38:02;2.40;;;1.25;;
43150;SDS011;28755;51.478;5.702;2022-12-20T10:40:33;4.05;;;1.58;;
43150;SDS011;28755;51.478;5.702;2022-12-20T10:43:13;4.13;;;1.90;;
43150;SDS011;28755;51.478;5.702;2022-12-20T10:45:43;3.72;;;1.60;;
43150;SDS011;28755;51.478;5.702;2022-12-20T10:48:28;3.85;;;1.60;;
43150;SDS011;28755;51.478;5.702;2022-12-20T10:50:58;4.43;;;1.63;;
43150;SDS011;28755;51.478;5.702;2022-12-20T10:53:26;5.78;;;1.80;;
43150;SDS011;28755;51.478;5.702;2022-12-20T10:55:53;6.03;;;1.90;;
43150;SDS011;28755;51.478;5.702;2022-12-20T10:58:34;6.28;;;2.10;;
43150;SDS011;28755;51.478;5.702;2022-12-20T11:01:11;3.65;;;1.90;;
43150;SDS011;28755;51.478;5.702;2022-12-20T11:03:51;4.68;;;2.10;;
43150;SDS011;28755;51.478;5.702;2022-12-20T11:09:11;4.28;;;1.92;;
43150;SDS011;28755;51.478;5.702;2022-12-20T11:14:36;6.75;;;2.33;;
43150;SDS011;28755;51.478;5.702;2022-12-20T11:17:03;5.05;;;2.30;;
43150;SDS011;28755;51.478;5.702;2022-12-20T11:19:56;5.25;;;2.15;;
43150;SDS011;28755;51.478;5.702;2022-12-20T11:30:32;8.85;;;2.70;;
43150;SDS011;28755;51.478;5.702;2022-12-20T11:36:05;7.30;;;2.40;;
43150;SDS011;28755;51.478;5.702;2022-12-20T11:38:39;6.05;;;3.10;;
43150;SDS011;28755;51.478;5.702;2022-12-20T11:41:17;7.78;;;2.70;;
43150;SDS011;28755;51.478;5.702;2022-12-20T11:43:59;4.75;;;2.67;;
43150;SDS011;28755;51.478;5.702;2022-12-20T11:47:09;5.22;;;2.53;;
43150;SDS011;28755;51.478;5.702;2022-12-20T11:50:18;8.70;;;3.00;;
43150;SDS011;28755;51.478;5.702;2022-12-20T11:53:39;6.00;;;2.60;;
43150;SDS011;28755;51.478;5.702;2022-12-20T11:55:56;8.77;;;2.95;;
43150;SDS011;28755;51.478;5.702;2022-12-20T11:58:28;6.35;;;2.80;;
43150;SDS011;28755;51.478;5.702;2022-12-20T12:01:03;8.73;;;2.80;;
43150;SDS011;28755;51.478;5.702;2022-12-20T12:03:42;4.60;;;2.80;;
43150;SDS011;28755;51.478;5.702;2022-12-20T12:06:32;5.10;;;2.45;;
43150;SDS011;28755;51.478;5.702;2022-12-20T12:09:07;5.10;;;2.97;;
43150;SDS011;28755;51.478;5.702;2022-12-20T12:11:56;4.80;;;2.70;;
43150;SDS011;28755;51.478;5.702;2022-12-20T12:14:36;6.68;;;2.63;;
43150;SDS011;28755;51.478;5.702;2022-12-20T12:17:16;4.95;;;2.85;;
43150;SDS011;28755;51.478;5.702;2022-12-20T12:19:48;7.00;;;2.85;;
43150;SDS011;28755;51.478;5.702;2022-12-20T12:22:19;7.88;;;3.08;;
43150;SDS011;28755;51.478;5.702;2022-12-20T12:24:52;4.75;;;2.75;;
43150;SDS011;28755;51.478;5.702;2022-12-20T12:27:23;5.57;;;2.60;;
43150;SDS011;28755;51.478;5.702;2022-12-20T12:29:50;5.35;;;2.22;;
43150;SDS011;28755;51.478;5.702;2022-12-20T12:37:26;5.95;;;2.88;;
43150;SDS011;28755;51.478;5.702;2022-12-20T12:45:29;6.40;;;2.88;;
43150;SDS011;28755;51.478;5.702;2022-12-20T12:48:04;5.70;;;3.00;;
43150;SDS011;28755;51.478;5.702;2022-12-20T12:50:51;5.53;;;3.10;;
43150;SDS011;28755;51.478;5.702;2022-12-20T12:53:20;12.25;;;3.03;;
43150;SDS011;28755;51.478;5.702;2022-12-20T12:55:55;6.55;;;2.78;;
43150;SDS011;28755;51.478;5.702;2022-12-20T13:09:35;7.55;;;3.10;;
43150;SDS011;28755;51.478;5.702;2022-12-20T13:11:46;6.68;;;3.17;;
43150;SDS011;28755;51.478;5.702;2022-12-20T13:16:43;5.63;;;2.85;;
43150;SDS011;28755;51.478;5.702;2022-12-20T13:19:13;7.78;;;3.08;;
43150;SDS011;28755;51.478;5.702;2022-12-20T13:21:41;3.53;;;2.90;;
43150;SDS011;28755;51.478;5.702;2022-12-20T13:29:57;8.30;;;3.20;;
43150;SDS011;28755;51.478;5.702;2022-12-20T13:38:04;8.15;;;3.53;;
43150;SDS011;28755;51.478;5.702;2022-12-20T13:40:59;6.43;;;3.50;;
43150;SDS011;28755;51.478;5.702;2022-12-20T13:43:40;8.52;;;3.70;;
43150;SDS011;28755;51.478;5.702;2022-12-20T13:51:02;6.82;;;4.20;;
43150;SDS011;28755;51.478;5.702;2022-12-20T13:53:28;7.47;;;3.83;;
43150;SDS011;28755;51.478;5.702;2022-12-20T13:55:55;9.70;;;4.05;;
43150;SDS011;28755;51.478;5.702;2022-12-20T13:58:21;7.05;;;4.28;;
43150;SDS011;28755;51.478;5.702;2022-12-20T14:00:50;9.25;;;4.78;;
43150;SDS011;28755;51.478;5.702;2022-12-20T14:03:24;9.40;;;4.50;;
43150;SDS011;28755;51.478;5.702;2022-12-20T14:05:56;6.38;;;4.20;;
43150;SDS011;28755;51.478;5.702;2022-12-20T14:08:28;6.25;;;4.35;;
43150;SDS011;28755;51.478;5.702;2022-12-20T14:11:10;7.97;;;4.10;;
43150;SDS011;28755;51.478;5.702;2022-12-20T14:13:38;10.13;;;4.30;;
43150;SDS011;28755;51.478;5.702;2022-12-20T14:16:10;6.70;;;3.97;;
43150;SDS011;28755;51.478;5.702;2022-12-20T14:18:45;10.75;;;4.50;;
43150;SDS011;28755;51.478;5.702;2022-12-20T14:21:15;9.43;;;4.28;;
43150;SDS011;28755;51.478;5.702;2022-12-20T14:23:43;6.88;;;3.75;;
43150;SDS011;28755;51.478;5.702;2022-12-20T14:26:16;10.32;;;4.47;;
43150;SDS011;28755;51.478;5.702;2022-12-20T14:28:48;9.43;;;4.40;;
43150;SDS011;28755;51.478;5.702;2022-12-20T14:31:29;7.47;;;4.20;;
43150;SDS011;28755;51.478;5.702;2022-12-20T14:36:35;9.13;;;4.03;;
43150;SDS011;28755;51.478;5.702;2022-12-20T14:39:20;9.32;;;4.35;;
43150;SDS011;28755;51.478;5.702;2022-12-20T14:41:46;7.22;;;4.32;;
43150;SDS011;28755;51.478;5.702;2022-12-20T14:44:20;9.40;;;4.68;;
43150;SDS011;28755;51.478;5.702;2022-12-20T14:47:32;8.70;;;4.75;;
43150;SDS011;28755;51.478;5.702;2022-12-20T14:55:38;7.75;;;4.50;;
43150;SDS011;28755;51.478;5.702;2022-12-20T14:57:50;8.57;;;4.28;;
43150;SDS011;28755;51.478;5.702;2022-12-20T15:08:16;11.10;;;4.78;;
43150;SDS011;28755;51.478;5.702;2022-12-20T15:11:00;9.70;;;4.70;;
43150;SDS011;28755;51.478;5.702;2022-12-20T15:16:22;13.10;;;5.05;;
43150;SDS011;28755;51.478;5.702;2022-12-20T15:18:50;10.25;;;4.85;;
43150;SDS011;28755;51.478;5.702;2022-12-20T15:21:31;9.68;;;5.07;;
43150;SDS011;28755;51.478;5.702;2022-12-20T15:24:03;8.93;;;4.75;;
43150;SDS011;28755;51.478;5.702;2022-12-20T15:26:33;11.50;;;5.70;;
43150;SDS011;28755;51.478;5.702;2022-12-20T15:28:59;6.88;;;4.55;;
43150;SDS011;28755;51.478;5.702;2022-12-20T15:31:25;8.50;;;5.35;;
43150;SDS011;28755;51.478;5.702;2022-12-20T15:33:52;7.35;;;4.22;;
43150;SDS011;28755;51.478;5.702;2022-12-20T15:36:22;5.85;;;4.80;;
43150;SDS011;28755;51.478;5.702;2022-12-20T15:38:53;7.15;;;4.63;;
43150;SDS011;28755;51.478;5.702;2022-12-20T15:43:53;9.18;;;5.45;;
43150;SDS011;28755;51.478;5.702;2022-12-20T15:46:20;12.13;;;5.28;;
43150;SDS011;28755;51.478;5.702;2022-12-20T15:48:46;9.18;;;5.47;;
43150;SDS011;28755;51.478;5.702;2022-12-20T15:51:16;11.48;;;5.18;;
43150;SDS011;28755;51.478;5.702;2022-12-20T15:53:48;13.32;;;4.95;;
43150;SDS011;28755;51.478;5.702;2022-12-20T15:56:18;10.20;;;4.80;;
43150;SDS011;28755;51.478;5.702;2022-12-20T15:58:45;8.77;;;4.63;;
43150;SDS011;28755;51.478;5.702;2022-12-20T16:01:12;12.52;;;4.97;;
43150;SDS011;28755;51.478;5.702;2022-12-20T16:03:42;8.13;;;4.95;;
43150;SDS011;28755;51.478;5.702;2022-12-20T16:06:09;10.63;;;5.40;;
43150;SDS011;28755;51.478;5.702;2022-12-20T16:08:36;10.05;;;4.53;;
43150;SDS011;28755;51.478;5.702;2022-12-20T16:11:03;14.60;;;5.75;;
43150;SDS011;28755;51.478;5.702;2022-12-20T16:13:30;11.80;;;5.10;;
43150;SDS011;28755;51.478;5.702;2022-12-20T16:15:56;9.13;;;5.25;;
43150;SDS011;28755;51.478;5.702;2022-12-20T16:18:21;9.18;;;4.75;;
43150;SDS011;28755;51.478;5.702;2022-12-20T16:20:47;15.63;;;5.60;;
43150;SDS011;28755;51.478;5.702;2022-12-20T16:23:16;11.02;;;5.55;;
43150;SDS011;28755;51.478;5.702;2022-12-20T16:25:44;11.68;;;5.53;;
43150;SDS011;28755;51.478;5.702;2022-12-20T16:28:10;11.88;;;6.15;;
43150;SDS011;28755;51.478;5.702;2022-12-20T16:30:36;9.15;;;5.60;;
43150;SDS011;28755;51.478;5.702;2022-12-20T16:33:02;10.35;;;5.32;;
43150;SDS011;28755;51.478;5.702;2022-12-20T16:35:29;9.90;;;5.47;;
43150;SDS011;28755;51.478;5.702;2022-12-20T16:37:57;11.05;;;5.65;;
43150;SDS011;28755;51.478;5.702;2022-12-20T16:40:25;7.53;;;5.70;;
43150;SDS011;28755;51.478;5.702;2022-12-20T16:42:52;10.70;;;6.10;;